Time;durP1;ratioP1;P1;durP2;ratioP2;P2;SDS_P1;SDS_P2;PMS_P1;PMS_P2;Temp;Humidity;BMP_temperature;BMP_pressure;BME280_temperature;BME280_humidity;BME280_pressure;Samples;Min_cycle;Max_cycle;Signal;HPM_P1;HPM_P2
2023/01/23 00:00:46;;;;;;;43.43;21.20;;;2.50;99.90;;;;;;2613508;54;20139;-75
2023/01/23 00:06:34;;;;;;;34.30;21.03;;;2.40;99.90;;;;;;2616151;54;20953;-76
2023/01/23 00:12:22;;;;;;;32.40;19.97;;;2.50;99.90;;;;;;2615442;54;20180;-76
2023/01/23 00:18:10;;;;;;;31.40;21.10;;;2.50;99.90;;;;;;2614521;54;20231;-76
2023/01/23 00:24:00;;;;;;;31.47;20.50;;;2.40;99.90;;;;;;2616537;54;20142;-75
2023/01/23 00:29:50;;;;;;;29.93;20.53;;;2.40;99.90;;;;;;2615457;54;20415;-76
2023/01/23 00:33:09;;;;;;;27.03;17.83;;;2.40;99.90;;;;;;2615903;47;20961;-75
2023/01/23 00:35:34;;;;;;;34.27;20.87;;;2.40;99.90;;;;;;2615268;46;20418;-75
2023/01/23 00:41:23;;;;;;;32.20;19.10;;;2.40;99.90;;;;;;2615575;54;20154;-75
2023/01/23 00:47:10;;;;;;;31.03;19.53;;;2.40;99.90;;;;;;2616278;54;20491;-76
2023/01/23 00:52:58;;;;;;;28.00;18.07;;;2.50;99.90;;;;;;2616286;54;20130;-75
2023/01/23 00:58:46;;;;;;;25.63;17.70;;;2.50;99.90;;;;;;2614948;54;20236;-76
2023/01/23 01:04:34;;;;;;;28.70;17.37;;;2.40;99.90;;;;;;2615441;54;20127;-76
2023/01/23 01:10:22;;;;;;;28.43;16.47;;;2.40;99.90;;;;;;2616465;54;20155;-75
2023/01/23 01:16:10;;;;;;;25.70;17.67;;;2.40;99.90;;;;;;2614355;54;20491;-75
2023/01/23 01:21:58;;;;;;;25.90;16.80;;;2.40;99.90;;;;;;2615799;54;20431;-77
2023/01/23 01:27:46;;;;;;;24.47;16.27;;;2.40;99.90;;;;;;2616214;54;20158;-75
2023/01/23 01:37:39;;;;;;;23.90;17.30;;;2.40;99.90;;;;;;2616360;54;20399;-76
2023/01/23 01:43:27;;;;;;;26.50;16.67;;;2.40;99.90;;;;;;2616326;39;20787;-76
2023/01/23 01:49:20;;;;;;;25.47;16.83;;;2.40;99.90;;;;;;2614740;39;20745;-76
2023/01/23 01:55:07;;;;;;;23.77;15.47;;;2.40;99.90;;;;;;2615527;54;20454;-75
2023/01/23 02:00:55;;;;;;;22.83;16.17;;;2.40;99.90;;;;;;2615797;54;20395;-76
2023/01/23 02:06:44;;;;;;;26.07;16.00;;;2.40;99.90;;;;;;2616174;54;20383;-77
2023/01/23 02:12:34;;;;;;;24.83;15.70;;;2.40;99.90;;;;;;2615092;54;20378;-76
2023/01/23 02:18:23;;;;;;;23.07;15.90;;;2.40;99.90;;;;;;2614910;54;20363;-76
2023/01/23 02:33:57;;;;;;;26.30;16.47;;;2.30;99.90;;;;;;2613168;54;21007;-76
2023/01/23 02:39:44;;;;;;;25.23;18.07;;;2.20;99.90;;;;;;2614734;54;20482;-76
2023/01/23 02:45:32;;;;;;;27.70;18.53;;;2.30;99.90;;;;;;2614307;54;20165;-77
2023/01/23 02:51:21;;;;;;;27.17;16.73;;;2.30;99.90;;;;;;2615022;54;21264;-76
2023/01/23 02:57:09;;;;;;;25.10;17.20;;;2.30;99.90;;;;;;2615332;54;20543;-78
2023/01/23 03:02:56;;;;;;;23.27;15.80;;;2.30;99.90;;;;;;2615111;54;20399;-77
2023/01/23 03:08:48;;;;;;;30.27;18.60;;;2.40;99.90;;;;;;2615989;54;20150;-75
2023/01/23 03:14:37;;;;;;;32.77;16.33;;;2.40;99.90;;;;;;2615743;54;20403;-76
2023/01/23 03:20:26;;;;;;;30.40;16.00;;;2.40;99.90;;;;;;2613414;54;20428;-76
2023/01/23 03:26:14;;;;;;;33.30;17.20;;;2.40;99.90;;;;;;2614019;54;20411;-76
2023/01/23 03:32:03;;;;;;;20.60;16.00;;;2.40;99.90;;;;;;2614861;39;20962;-77
2023/01/23 03:41:25;;;;;;;26.87;18.23;;;2.50;99.90;;;;;;2613463;54;20429;-75
2023/01/23 03:47:12;;;;;;;29.43;17.90;;;2.50;99.90;;;;;;2613522;54;20503;-76
2023/01/23 03:53:02;;;;;;;28.40;17.50;;;2.40;99.90;;;;;;2614535;54;20129;-76
2023/01/23 03:58:49;;;;;;;27.03;18.20;;;2.40;99.90;;;;;;2614904;54;21501;-75
2023/01/23 04:04:37;;;;;;;26.70;18.40;;;2.40;99.90;;;;;;2614919;54;20122;-76
2023/01/23 04:10:24;;;;;;;27.20;17.10;;;2.50;99.90;;;;;;2614612;54;20399;-76
2023/01/23 04:16:12;;;;;;;27.93;17.57;;;2.40;99.90;;;;;;2615661;54;20383;-74
2023/01/23 04:22:00;;;;;;;31.07;18.23;;;2.50;99.90;;;;;;2616442;54;20435;-74
2023/01/23 04:27:48;;;;;;;29.97;19.63;;;2.50;99.90;;;;;;2617040;54;20370;-76
2023/01/23 04:33:35;;;;;;;31.87;19.50;;;2.50;99.90;;;;;;2616382;54;20648;-75
2023/01/23 04:39:23;;;;;;;32.73;21.80;;;2.60;99.90;;;;;;2616914;54;20119;-75
2023/01/23 04:42:26;;;;;;;34.57;21.37;;;2.50;99.90;;;;;;2615629;54;20410;-76
2023/01/23 04:44:52;;;;;;;29.47;19.33;;;2.50;99.90;;;;;;2615566;46;20159;-73
2023/01/23 04:50:39;;;;;;;31.23;18.77;;;2.60;99.90;;;;;;2615271;54;20150;-76
2023/01/23 04:56:27;;;;;;;29.33;18.90;;;2.60;99.90;;;;;;2614944;54;20178;-77
2023/01/23 05:02:16;;;;;;;27.27;16.80;;;2.60;99.90;;;;;;2616226;54;20147;-75
2023/01/23 05:08:04;;;;;;;26.97;18.63;;;2.60;99.90;;;;;;2616342;54;20375;-76
2023/01/23 05:13:51;;;;;;;24.77;18.07;;;2.60;99.90;;;;;;2615293;54;20499;-76
2023/01/23 05:19:39;;;;;;;27.27;18.53;;;2.60;99.90;;;;;;2614864;54;20134;-75
2023/01/23 05:25:28;;;;;;;26.60;17.20;;;2.60;99.90;;;;;;2615195;54;20130;-75
2023/01/23 05:31:15;;;;;;;27.70;18.27;;;2.70;99.90;;;;;;2613482;54;20415;-75
2023/01/23 05:33:55;;;;;;;26.77;17.60;;;2.60;99.90;;;;;;2614817;54;20408;-75
2023/01/23 05:36:21;;;;;;;30.60;18.00;;;2.70;99.90;;;;;;2614442;54;20143;-75
2023/01/23 05:42:08;;;;;;;25.10;17.03;;;2.70;99.90;;;;;;2615124;54;20135;-75
2023/01/23 05:47:56;;;;;;;30.37;19.23;;;2.70;99.90;;;;;;2616352;39;20602;-76
2023/01/23 05:53:44;;;;;;;24.10;16.77;;;2.70;99.90;;;;;;2616430;39;20435;-75
2023/01/23 05:59:32;;;;;;;29.20;19.23;;;2.60;99.90;;;;;;2616590;54;20403;-75
2023/01/23 06:05:20;;;;;;;30.67;18.50;;;2.70;99.90;;;;;;2614601;54;20166;-75
2023/01/23 06:11:08;;;;;;;29.20;19.23;;;2.70;99.90;;;;;;2615895;54;20150;-75
2023/01/23 06:16:56;;;;;;;28.70;17.37;;;2.70;99.90;;;;;;2615477;54;20122;-76
2023/01/23 06:22:43;;;;;;;26.73;16.90;;;2.70;99.90;;;;;;2613956;54;20123;-75
2023/01/23 06:28:31;;;;;;;26.97;18.70;;;2.70;99.90;;;;;;2614989;39;20823;-76
2023/01/23 06:38:28;;;;;;;32.40;21.43;;;2.60;99.90;;;;;;2614551;54;20386;-75
2023/01/23 06:44:16;;;;;;;35.40;21.27;;;2.70;99.90;;;;;;2615667;54;20414;-75
2023/01/23 06:50:04;;;;;;;29.30;18.90;;;2.60;99.90;;;;;;2614611;54;20235;-75
2023/01/23 06:55:52;;;;;;;31.73;20.40;;;2.60;99.90;;;;;;2614785;54;20379;-75
2023/01/23 07:01:41;;;;;;;28.60;19.63;;;2.60;99.90;;;;;;2613807;54;20395;-74
2023/01/23 07:07:28;;;;;;;32.00;20.90;;;2.60;99.90;;;;;;2614014;54;20956;-75
2023/01/23 07:13:16;;;;;;;24.97;17.83;;;2.60;99.90;;;;;;2614316;54;20243;-75
2023/01/23 07:19:04;;;;;;;26.63;18.23;;;2.60;99.90;;;;;;2614590;54;20378;-76
2023/01/23 07:24:52;;;;;;;31.47;19.20;;;2.60;99.90;;;;;;2615698;54;20661;-76
2023/01/23 07:30:40;;;;;;;28.30;18.80;;;2.60;99.90;;;;;;2614972;54;20129;-75
2023/01/23 07:33:06;;;;;;;25.83;18.00;;;2.60;99.90;;;;;;2613786;54;21254;-75
2023/01/23 07:35:32;;;;;;;31.20;19.47;;;2.60;99.90;;;;;;2615100;54;20703;-74
2023/01/23 07:41:19;;;;;;;30.17;19.27;;;2.60;99.90;;;;;;2613006;54;20478;-75
2023/01/23 07:47:07;;;;;;;30.97;19.70;;;2.70;99.90;;;;;;2613678;54;20193;-75
2023/01/23 07:49:53;;;;;;;30.80;19.83;;;2.70;99.90;;;;;;2615113;54;20395;-74
2023/01/23 07:52:19;;;;;;;26.60;18.20;;;2.70;99.90;;;;;;2612811;54;20586;-76
2023/01/23 07:58:06;;;;;;;23.83;15.97;;;2.70;99.90;;;;;;2613807;54;20135;-76
2023/01/23 08:03:54;;;;;;;29.97;19.10;;;2.80;99.90;;;;;;2615483;54;20130;-76
2023/01/23 08:09:42;;;;;;;29.33;18.80;;;2.80;99.90;;;;;;2615226;54;20138;-76
2023/01/23 08:15:30;;;;;;;32.33;19.07;;;2.90;99.90;;;;;;2614714;54;20250;-76
2023/01/23 08:17:55;;;;;;;30.20;18.87;;;2.80;99.90;;;;;;2612121;47;20397;-75
2023/01/23 08:20:22;;;;;;;31.57;20.60;;;2.80;99.90;;;;;;2613743;47;20190;-74
2023/01/23 08:26:16;;;;;;;28.53;18.57;;;2.90;99.90;;;;;;2613746;54;20403;-76
2023/01/23 08:32:04;;;;;;;32.20;20.53;;;2.90;99.90;;;;;;2612555;54;20366;-75
2023/01/23 08:35:19;;;;;;;30.20;20.23;;;2.90;99.90;;;;;;2611951;47;20451;-75
2023/01/23 08:37:45;;;;;;;28.90;18.97;;;3.00;99.90;;;;;;2613244;47;20225;-76
2023/01/23 08:43:33;;;;;;;30.47;19.40;;;3.10;99.90;;;;;;2615967;54;20139;-75
2023/01/23 08:49:20;;;;;;;25.33;16.40;;;3.10;99.90;;;;;;2616391;39;20525;-75
2023/01/23 08:55:09;;;;;;;27.83;18.10;;;3.10;99.90;;;;;;2615819;54;20203;-75
2023/01/23 09:00:57;;;;;;;24.60;16.30;;;3.20;99.90;;;;;;2616183;54;20407;-75
2023/01/23 09:06:45;;;;;;;24.50;16.60;;;3.30;99.90;;;;;;2616200;54;20130;-74
2023/01/23 09:12:32;;;;;;;26.40;16.03;;;3.30;99.90;;;;;;2615492;54;20215;-75
2023/01/23 09:14:58;;;;;;;25.33;15.30;;;3.40;99.90;;;;;;2614501;47;20981;-76
2023/01/23 09:17:24;;;;;;;20.07;14.90;;;3.40;99.90;;;;;;2616181;54;20154;-74
2023/01/23 09:23:12;;;;;;;20.70;14.23;;;3.30;99.90;;;;;;2615204;54;20503;-75
2023/01/23 09:29:00;;;;;;;18.80;14.80;;;3.40;99.90;;;;;;2614372;54;20130;-75
2023/01/23 09:38:32;;;;;;;20.73;14.23;;;3.40;99.90;;;;;;2615744;54;20386;-76
2023/01/23 09:57:05;;;;;;;16.93;13.30;;;3.60;99.90;;;;;;2615659;54;20418;-75
2023/01/23 10:02:54;;;;;;;19.47;14.40;;;3.70;99.90;;;;;;2614925;39;20750;-76
2023/01/23 10:44:48;;;;;;;16.40;13.50;;;4.00;99.90;;;;;;2612924;54;20527;-76
2023/01/23 10:47:23;;;;;;;17.47;14.03;;;4.00;99.90;;;;;;2611657;47;20444;-77
2023/01/23 10:49:49;;;;;;;15.40;12.57;;;4.00;99.90;;;;;;2612175;54;20344;-76
2023/01/23 11:08:28;;;;;;;14.03;12.53;;;4.60;99.90;;;;;;2614193;46;20426;-76
2023/01/23 11:14:22;;;;;;;14.10;12.30;;;4.20;99.90;;;;;;2613463;54;20375;-78
2023/01/23 11:40:35;;;;;;;13.50;11.87;;;5.30;99.90;;;;;;2611037;54;20425;-76
2023/01/23 11:56:39;;;;;;;15.00;13.50;;;6.70;99.90;;;;;;2610934;54;20510;-77
2023/01/23 12:02:32;;;;;;;15.60;14.00;;;5.50;99.90;;;;;;2611398;54;20406;-76
2023/01/23 12:19:02;;;;;;;17.87;15.90;;;5.10;99.90;;;;;;2614488;54;20446;-77
2023/01/23 12:45:00;;;;;;;17.73;14.30;;;4.40;99.90;;;;;;2614492;54;20397;-77
2023/01/23 12:54:59;;;;;;;14.70;13.20;;;4.30;99.90;;;;;;2611731;54;20419;-76
2023/01/23 13:30:40;;;;;;;20.93;15.80;;;4.60;99.90;;;;;;2616224;54;20394;-77
2023/01/23 13:40:24;;;;;;;16.00;13.90;;;4.40;99.90;;;;;;2615000;54;20410;-77
2023/01/23 13:58:59;;;;;;;18.83;15.20;;;4.40;99.90;;;;;;2615392;54;20915;-79
2023/01/23 14:11:21;;;;;;;17.53;15.27;;;4.30;99.90;;;;;;2613935;54;20463;-76
2023/01/23 14:17:11;;;;;;;17.67;14.50;;;4.30;99.90;;;;;;2614153;54;20443;-77
2023/01/23 14:22:59;;;;;;;13.53;12.30;;;4.30;99.90;;;;;;2616676;54;20936;-76
2023/01/23 14:28:59;;;;;;;14.60;12.47;;;4.20;99.90;;;;;;2615525;54;20130;-77
2023/01/23 14:34:47;;;;;;;14.90;12.33;;;4.20;99.90;;;;;;2616173;54;20394;-76
2023/01/23 14:40:39;;;;;;;14.40;12.93;;;4.20;99.90;;;;;;2614163;54;20897;-76
2023/01/23 14:46:33;;;;;;;15.07;13.67;;;4.10;99.90;;;;;;2615110;54;20411;-75
2023/01/23 14:49:05;;;;;;;14.17;12.77;;;4.10;99.90;;;;;;2612490;47;20457;-76
2023/01/23 14:51:31;;;;;;;14.20;12.77;;;4.10;99.90;;;;;;2614300;47;20414;-76
2023/01/23 14:57:21;;;;;;;14.00;12.60;;;4.10;99.90;;;;;;2616355;54;20141;-76
2023/01/23 15:03:11;;;;;;;15.97;14.27;;;4.00;99.90;;;;;;2613445;54;20375;-76
2023/01/23 15:32:38;;;;;;;18.60;15.13;;;4.00;99.90;;;;;;2614056;54;21011;-75
2023/01/23 15:35:55;;;;;;;14.83;12.80;;;3.90;99.90;;;;;;2614424;47;20415;-76
2023/01/23 15:38:20;;;;;;;16.30;14.30;;;4.00;99.90;;;;;;2614497;47;20409;-75
2023/01/23 15:44:13;;;;;;;16.03;13.63;;;3.90;99.90;;;;;;2612891;54;20122;-74
2023/01/23 15:50:01;;;;;;;21.30;14.90;;;3.90;99.90;;;;;;2613950;54;20456;-76
2023/01/23 15:55:49;;;;;;;18.27;15.00;;;3.90;99.90;;;;;;2614890;54;20406;-76
2023/01/23 16:01:37;;;;;;;17.77;14.07;;;3.90;99.90;;;;;;2615414;54;20158;-74
2023/01/23 16:07:40;;;;;;;19.97;15.37;;;3.90;99.90;;;;;;2615898;54;20161;-76
2023/01/23 16:13:27;;;;;;;19.17;15.37;;;3.90;99.90;;;;;;2615633;39;20790;-76
2023/01/23 16:19:14;;;;;;;16.07;13.83;;;3.80;99.90;;;;;;2614593;39;20645;-76
2023/01/23 16:25:02;;;;;;;17.20;15.40;;;3.80;99.90;;;;;;2613071;54;20135;-75
2023/01/23 16:30:50;;;;;;;16.23;13.87;;;3.80;99.90;;;;;;2613661;54;20391;-76
2023/01/23 16:40:23;;;;;;;18.40;14.20;;;3.80;99.90;;;;;;2612382;54;20464;-76
2023/01/23 16:46:11;;;;;;;15.80;13.67;;;3.80;99.90;;;;;;2614116;54;20524;-77
2023/01/23 16:52:00;;;;;;;17.80;15.23;;;3.80;99.90;;;;;;2614707;54;20379;-76
2023/01/23 16:57:54;;;;;;;17.57;14.17;;;3.70;99.90;;;;;;2614175;54;20414;-77
2023/01/23 17:03:43;;;;;;;16.10;13.60;;;3.80;99.90;;;;;;2613704;54;20472;-76
2023/01/23 17:09:31;;;;;;;17.30;15.10;;;3.70;99.90;;;;;;2615488;54;20960;-76
2023/01/23 17:21:50;;;;;;;17.57;15.47;;;3.60;99.90;;;;;;2614759;54;20475;-76
2023/01/23 17:27:38;;;;;;;16.00;12.87;;;3.60;99.90;;;;;;2616068;54;20422;-76
2023/01/23 17:33:30;;;;;;;18.27;14.50;;;3.70;99.90;;;;;;2616556;54;20196;-75
2023/01/23 17:35:56;;;;;;;15.90;13.83;;;3.60;99.90;;;;;;2615749;54;20424;-76
2023/01/23 17:38:24;;;;;;;15.87;13.13;;;3.70;99.90;;;;;;2615388;47;20451;-75
2023/01/23 17:44:12;;;;;;;16.97;14.20;;;3.60;99.90;;;;;;2613148;54;20375;-76
2023/01/23 17:50:00;;;;;;;15.30;12.57;;;3.70;99.90;;;;;;2616135;54;20138;-77
2023/01/23 17:55:50;;;;;;;19.27;14.53;;;3.70;99.90;;;;;;2615734;54;20933;-77
2023/01/23 18:01:37;;;;;;;14.70;13.20;;;3.60;99.90;;;;;;2614424;54;20434;-77
2023/01/23 18:07:25;;;;;;;16.53;13.10;;;3.60;99.90;;;;;;2616069;54;20146;-76
2023/01/23 18:13:16;;;;;;;18.07;14.43;;;3.60;99.90;;;;;;2616121;54;20512;-77
2023/01/23 18:32:14;;;;;;;20.00;15.50;;;3.60;99.90;;;;;;2612674;39;20816;-75
2023/01/23 18:38:13;;;;;;;17.03;13.77;;;3.60;99.90;;;;;;2614084;46;20453;-76
2023/01/23 18:50:33;;;;;;;17.93;14.23;;;3.60;99.90;;;;;;2614335;54;20391;-77
2023/01/23 19:03:14;;;;;;;18.93;14.03;;;3.60;99.90;;;;;;2613974;54;20391;-77
2023/01/23 19:09:01;;;;;;;14.47;12.40;;;3.60;99.90;;;;;;2614310;54;20935;-77
2023/01/23 19:21:26;;;;;;;17.60;14.40;;;3.60;99.90;;;;;;2615045;54;20474;-76
2023/01/23 19:27:21;;;;;;;15.77;14.00;;;3.60;99.90;;;;;;2614838;54;20371;-76
2023/01/23 19:33:18;;;;;;;16.60;14.90;;;3.70;99.90;;;;;;2614081;54;21043;-76
2023/01/23 19:35:58;;;;;;;15.90;14.07;;;3.70;99.90;;;;;;2613909;47;20423;-75
2023/01/23 19:38:24;;;;;;;16.87;14.67;;;3.70;99.90;;;;;;2613313;47;20997;-76
2023/01/23 19:44:14;;;;;;;18.83;14.20;;;3.70;99.90;;;;;;2614318;39;20248;-74
2023/01/23 19:50:01;;;;;;;14.43;12.90;;;3.70;99.90;;;;;;2612656;54;20423;-76
2023/01/23 19:55:48;;;;;;;16.17;14.47;;;3.70;99.90;;;;;;2615182;54;20162;-75
2023/01/23 20:01:42;;;;;;;16.33;14.50;;;3.80;99.90;;;;;;2613067;54;20439;-76
2023/01/23 20:07:29;;;;;;;17.13;14.17;;;3.80;99.90;;;;;;2613490;54;20394;-76
2023/01/23 20:13:17;;;;;;;16.47;14.30;;;3.80;99.90;;;;;;2615715;54;20139;-78
2023/01/23 20:19:06;;;;;;;16.73;14.70;;;3.80;99.90;;;;;;2616104;54;20134;-76
2023/01/23 20:24:53;;;;;;;20.13;15.83;;;3.80;99.90;;;;;;2616657;54;20363;-75
2023/01/23 20:30:41;;;;;;;16.07;13.90;;;3.90;99.90;;;;;;2616863;39;20943;-76
2023/01/23 20:40:28;;;;;;;17.13;15.30;;;3.80;99.90;;;;;;2617577;39;20822;-75
2023/01/23 20:46:18;;;;;;;24.93;18.77;;;3.70;99.90;;;;;;2618025;54;20399;-75
2023/01/23 21:04:22;;;;;;;26.33;19.33;;;3.60;99.90;;;;;;2617351;54;20438;-76
2023/01/23 21:10:09;;;;;;;23.40;18.90;;;3.50;99.90;;;;;;2614535;54;20406;-76
2023/01/23 21:16:02;;;;;;;24.00;19.07;;;3.60;99.90;;;;;;2615487;54;20122;-77
2023/01/23 21:21:50;;;;;;;25.87;17.83;;;3.50;99.90;;;;;;2615773;54;20398;-76
2023/01/23 21:27:38;;;;;;;25.37;17.87;;;3.50;99.90;;;;;;2616435;46;20643;-77
2023/01/23 21:33:25;;;;;;;24.20;17.10;;;3.60;99.90;;;;;;2615835;54;20202;-76
2023/01/23 21:35:59;;;;;;;24.57;17.53;;;3.60;99.90;;;;;;2615474;54;20402;-75
2023/01/23 21:38:25;;;;;;;22.43;16.60;;;3.60;99.90;;;;;;2615941;47;20661;-76
2023/01/23 21:44:13;;;;;;;21.20;16.67;;;3.70;99.90;;;;;;2616013;54;20166;-76
2023/01/23 21:50:01;;;;;;;21.20;16.00;;;3.70;99.90;;;;;;2615502;54;20386;-76
2023/01/23 21:55:52;;;;;;;17.40;13.87;;;3.60;99.90;;;;;;2615552;54;20131;-77
2023/01/23 22:01:44;;;;;;;20.70;15.60;;;3.60;99.90;;;;;;2615541;54;20414;-76
2023/01/23 22:07:31;;;;;;;27.10;17.37;;;3.60;99.90;;;;;;2616150;54;20487;-77
2023/01/23 22:13:19;;;;;;;21.37;16.43;;;3.60;99.90;;;;;;2616009;54;20130;-76
2023/01/23 22:19:06;;;;;;;21.40;15.40;;;3.60;99.90;;;;;;2614114;54;20149;-77
2023/01/23 22:24:54;;;;;;;19.00;14.60;;;3.60;99.90;;;;;;2616076;54;20662;-76
2023/01/23 22:30:42;;;;;;;18.70;14.30;;;3.60;99.90;;;;;;2615563;54;20134;-76
2023/01/23 22:40:28;;;;;;;17.53;13.77;;;3.50;99.90;;;;;;2614366;54;20379;-76
2023/01/23 22:46:18;;;;;;;17.20;14.13;;;3.50;99.90;;;;;;2614442;54;20390;-75
2023/01/23 22:52:05;;;;;;;16.17;12.47;;;3.50;99.90;;;;;;2616155;54;20374;-77
2023/01/23 22:57:53;;;;;;;16.57;14.07;;;3.40;99.90;;;;;;2615087;54;20810;-77
2023/01/23 23:03:42;;;;;;;16.90;14.30;;;3.40;99.90;;;;;;2616184;54;20138;-77
2023/01/23 23:09:29;;;;;;;19.07;14.17;;;3.40;99.90;;;;;;2615319;54;20383;-78
2023/01/23 23:15:17;;;;;;;21.00;16.03;;;3.40;99.90;;;;;;2615759;54;20145;-76
2023/01/23 23:21:10;;;;;;;16.47;13.47;;;3.40;99.90;;;;;;2614553;54;20755;-77
2023/01/23 23:26:58;;;;;;;17.80;14.90;;;3.40;99.90;;;;;;2614709;54;20387;-76
2023/01/23 23:32:46;;;;;;;17.93;13.80;;;3.30;99.90;;;;;;2615641;54;20688;-77
2023/01/23 23:35:57;;;;;;;18.00;14.67;;;3.30;99.90;;;;;;2615750;54;20383;-76
2023/01/23 23:38:23;;;;;;;18.53;14.07;;;3.30;99.90;;;;;;2614487;47;20269;-76
2023/01/23 23:44:11;;;;;;;19.40;15.60;;;3.30;99.90;;;;;;2614211;46;20162;-76
2023/01/23 23:49:59;;;;;;;21.93;14.83;;;3.30;99.90;;;;;;2615799;39;20542;-75
2023/01/23 23:55:47;;;;;;;17.47;14.10;;;3.30;99.90;;;;;;2615653;54;20668;-76
